createdAt,value
2023-04-18T00:01:44.906Z,121.80
2023-04-18T00:06:43.191Z,115.30
2023-04-18T00:11:41.460Z,107.20
2023-04-18T00:16:40.807Z,105.00
2023-04-18T00:21:40.870Z,97.40
2023-04-18T00:26:39.156Z,93.50
2023-04-18T00:31:37.417Z,88.00
2023-04-18T00:36:37.713Z,86.00
2023-04-18T00:41:36.999Z,83.00
2023-04-18T00:46:35.327Z,78.60
2023-04-18T00:51:35.974Z,74.60
2023-04-18T00:56:34.654Z,67.40
2023-04-18T01:01:33.981Z,67.40
2023-04-18T01:06:31.258Z,61.00
2023-04-18T01:11:32.612Z,60.20
2023-04-18T01:16:31.869Z,59.30
2023-04-18T01:21:31.159Z,55.50
2023-04-18T01:26:30.431Z,52.60
2023-04-18T01:31:30.770Z,49.70
2023-04-18T01:36:29.000Z,46.60
2023-04-18T01:41:30.279Z,46.10
2023-04-18T01:46:28.643Z,42.40
2023-04-18T01:51:26.708Z,41.90
2023-04-18T01:56:26.012Z,39.20
2023-04-18T02:01:26.300Z,37.90
2023-04-18T02:06:24.549Z,35.80
2023-04-18T02:11:25.812Z,33.40
2023-04-18T02:16:25.132Z,33.10
2023-04-18T02:21:22.353Z,34.30
2023-04-18T02:26:21.611Z,30.10
2023-04-18T02:31:20.901Z,30.90
2023-04-18T02:36:20.142Z,29.30
2023-04-18T02:41:20.402Z,27.20
2023-04-18T02:46:19.685Z,26.00
2023-04-18T02:51:17.948Z,24.80
2023-04-18T02:56:18.195Z,22.30
2023-04-18T03:01:17.457Z,22.00
2023-04-18T03:06:15.702Z,21.10
2023-04-18T03:11:14.942Z,21.40
2023-04-18T03:16:15.219Z,19.80
2023-04-18T03:21:14.521Z,18.60
2023-04-18T03:26:13.816Z,17.00
2023-04-18T03:31:11.151Z,16.70
2023-04-18T03:36:11.421Z,17.00
2023-04-18T03:41:10.696Z,14.80
2023-04-18T03:46:10.039Z,14.80
2023-04-18T03:51:09.309Z,14.00
2023-04-18T03:56:08.624Z,13.90
2023-04-18T04:01:07.903Z,12.40
2023-04-18T04:06:07.199Z,13.20
2023-04-18T04:11:06.510Z,11.20
2023-04-18T04:16:05.865Z,10.50
2023-04-18T04:21:04.912Z,11.10
2023-04-18T04:26:04.194Z,10.30
2023-04-18T04:31:03.475Z,9.60
2023-04-18T04:36:01.711Z,9.70
2023-04-18T04:41:02.974Z,9.00
2023-04-18T04:46:01.304Z,8.90
2023-04-18T04:51:01.392Z,9.10
2023-04-18T04:55:59.662Z,7.80
2023-04-18T05:01:04.022Z,7.10
2023-04-18T05:05:58.214Z,6.90
2023-04-18T05:10:57.501Z,7.40
2023-04-18T05:15:56.772Z,7.20
2023-04-18T05:20:56.052Z,6.70
2023-04-18T05:25:56.307Z,6.40
2023-04-18T05:30:55.609Z,6.00
2023-04-18T05:35:53.884Z,5.50
2023-04-18T05:40:53.091Z,5.10
2023-04-18T05:45:55.891Z,6.00
2023-04-18T05:50:53.700Z,5.70
2023-04-18T05:55:50.933Z,5.40
2023-04-18T06:00:50.229Z,4.80
2023-04-18T06:05:49.536Z,4.90
2023-04-18T06:10:50.625Z,4.50
2023-04-18T06:15:46.899Z,4.30
2023-04-18T06:20:48.147Z,4.30
2023-04-18T06:25:47.432Z,3.90
2023-04-18T06:30:46.752Z,3.70
2023-04-18T06:35:45.997Z,3.90
2023-04-18T06:40:44.270Z,3.60
2023-04-18T06:45:43.602Z,3.10
2023-04-18T06:50:42.846Z,3.50
2023-04-18T06:55:42.122Z,3.20
2023-04-18T07:00:41.402Z,2.90
2023-04-18T07:05:40.677Z,2.90
2023-04-18T07:10:39.950Z,2.60
2023-04-18T07:15:39.240Z,2.70
2023-04-18T07:20:39.504Z,2.80
2023-04-18T07:25:37.808Z,2.30
2023-04-18T07:30:37.110Z,2.60
2023-04-18T07:35:37.423Z,2.40
2023-04-18T07:40:36.708Z,6.80
2023-04-18T07:45:34.970Z,4.40
2023-04-18T07:50:33.278Z,5.70
2023-04-18T07:55:35.581Z,5.70
2023-04-18T08:00:33.830Z,5.60
2023-04-18T08:05:34.341Z,5.70
2023-04-18T08:10:32.412Z,5.00
2023-04-18T08:15:33.045Z,5.40
2023-04-18T08:20:29.929Z,4.70
2023-04-18T08:25:30.231Z,4.60
2023-04-18T08:30:30.482Z,4.90
2023-04-18T08:35:28.768Z,4.30
2023-04-18T08:40:29.050Z,4.80
2023-04-18T08:45:27.304Z,4.90
2023-04-18T08:50:25.571Z,4.70
2023-04-18T08:55:24.851Z,3.60
2023-04-18T09:00:24.115Z,3.60
2023-04-18T09:05:23.380Z,3.50
2023-04-18T09:10:23.653Z,3.70
2023-04-18T09:15:21.950Z,3.70
2023-04-18T09:20:22.232Z,3.40
2023-04-18T09:25:20.494Z,3.20
2023-04-18T09:30:19.768Z,3.20
2023-04-18T09:35:21.018Z,3.10
2023-04-18T09:40:18.309Z,3.20
2023-04-18T09:45:18.612Z,2.70
2023-04-18T09:50:17.936Z,3.00
2023-04-18T09:55:17.196Z,2.90
2023-04-18T10:00:15.522Z,2.70
2023-04-18T10:05:14.851Z,2.50
2023-04-18T10:10:13.955Z,2.60
2023-04-18T10:15:13.242Z,2.30
2023-04-18T10:20:12.558Z,2.30
2023-04-18T10:25:10.826Z,2.50
2023-04-18T10:30:11.100Z,2.10
2023-04-18T10:35:10.390Z,2.30
2023-04-18T10:40:09.659Z,2.00
2023-04-18T10:45:08.919Z,2.00
2023-04-18T10:50:08.188Z,2.30
2023-04-18T10:55:07.467Z,2.10
2023-04-18T11:00:06.767Z,1.90
2023-04-18T11:05:06.056Z,1.70
2023-04-18T11:10:06.376Z,1.90
2023-04-18T11:15:04.649Z,2.10
2023-04-18T11:20:03.978Z,1.80
2023-04-18T11:25:03.252Z,1.90
2023-04-18T11:30:02.516Z,1.60
2023-04-18T11:35:02.791Z,2.00
2023-04-18T11:40:01.076Z,1.60
2023-04-18T11:45:01.361Z,1.90
2023-04-18T11:49:59.612Z,1.90
2023-04-18T11:54:58.935Z,1.50
2023-04-18T11:59:59.222Z,1.60
2023-04-18T12:04:57.813Z,1.60
2023-04-18T12:09:58.781Z,1.40
2023-04-18T12:14:56.075Z,1.70
2023-04-18T12:19:55.364Z,1.20
2023-04-18T12:24:54.687Z,1.60
2023-04-18T12:29:54.948Z,1.30
2023-04-18T12:34:53.214Z,1.50
2023-04-18T12:39:52.488Z,1.50
2023-04-18T12:44:58.954Z,1.40
2023-04-18T12:49:51.017Z,1.40
2023-04-18T12:54:50.297Z,1.40
2023-04-18T12:59:50.564Z,1.50
2023-04-18T13:04:49.923Z,1.60
2023-04-18T13:09:49.027Z,1.50
2023-04-18T13:14:47.325Z,1.30
2023-04-18T13:19:47.629Z,1.30
2023-04-18T13:24:45.952Z,1.60
2023-04-18T13:29:46.297Z,1.30
2023-04-18T13:34:45.408Z,1.50
2023-04-18T13:39:44.667Z,0.90
2023-04-18T13:44:43.925Z,1.30
2023-04-18T13:49:42.193Z,1.40
2023-04-18T13:54:42.466Z,1.10
2023-04-18T13:59:40.757Z,1.30
2023-04-18T14:04:40.128Z,1.10
2023-04-18T14:09:39.283Z,1.20
2023-04-18T14:14:38.578Z,1.10
2023-04-18T14:19:37.834Z,1.20
2023-04-18T14:24:36.120Z,1.10
2023-04-18T14:29:37.412Z,1.20
2023-04-18T14:34:36.793Z,1.10
2023-04-18T14:39:35.047Z,1.50
2023-04-18T14:44:33.316Z,1.50
2023-04-18T14:49:34.627Z,1.20
2023-04-18T14:54:32.726Z,1.60
2023-04-18T14:59:32.159Z,1.70
2023-04-18T15:04:32.590Z,1.50
2023-04-18T15:09:30.792Z,2.00
2023-04-18T15:14:31.235Z,1.80
2023-04-18T15:19:29.395Z,1.60
2023-04-18T15:24:28.695Z,1.60
2023-04-18T15:29:29.007Z,1.70
2023-04-18T15:34:29.290Z,1.50
2023-04-18T15:39:27.589Z,1.90
2023-04-18T15:44:25.885Z,1.80
2023-04-18T15:49:27.192Z,1.50
2023-04-18T15:54:24.488Z,1.60
2023-04-18T15:59:23.779Z,1.80
2023-04-18T16:04:24.100Z,1.30
2023-04-18T16:09:23.208Z,1.50
2023-04-18T16:14:21.489Z,1.40
2023-04-18T16:19:24.767Z,1.30
2023-04-18T16:24:21.016Z,1.80
2023-04-18T16:29:19.298Z,2.20
2023-04-18T16:34:18.791Z,1.60
2023-04-18T16:39:17.898Z,1.50
2023-04-18T16:44:18.364Z,1.40
2023-04-18T16:49:17.463Z,1.60
2023-04-18T16:54:16.716Z,1.60
2023-04-18T16:59:15.007Z,1.90
2023-04-18T17:04:15.397Z,1.40
2023-04-18T17:09:13.664Z,1.60
2023-04-18T17:14:14.120Z,1.60
2023-04-18T17:19:13.330Z,1.40
2023-04-18T17:24:12.451Z,1.30
2023-04-18T17:29:10.703Z,1.60
2023-04-18T17:34:08.719Z,1.40
2023-04-18T17:39:09.143Z,1.30
2023-04-18T17:44:08.393Z,1.60
2023-04-18T17:49:07.671Z,1.30
2023-04-18T17:54:07.783Z,1.30
2023-04-18T17:59:06.226Z,1.30
2023-04-18T18:04:05.595Z,1.70
2023-04-18T18:09:04.748Z,1.30
2023-04-18T18:14:04.972Z,5.10
2023-04-18T18:19:03.219Z,3.20
2023-04-18T18:24:02.619Z,3.20
2023-04-18T18:29:01.778Z,3.20
2023-04-18T18:34:06.838Z,3.00
2023-04-18T18:39:01.312Z,2.80
2023-04-18T18:43:59.586Z,2.80
2023-04-18T18:48:59.897Z,2.70
2023-04-18T18:53:58.231Z,2.60
2023-04-18T18:58:59.243Z,2.60
2023-04-18T19:03:56.765Z,2.60
2023-04-18T19:08:56.884Z,2.70
2023-04-18T19:13:55.018Z,2.40
2023-04-18T19:18:59.208Z,1.70
2023-04-18T19:23:57.457Z,2.60
2023-04-18T19:28:51.587Z,2.10
2023-04-18T19:33:51.755Z,2.70
2023-04-18T19:38:50.938Z,80.90
2023-04-18T19:43:53.655Z,265.80
2023-04-18T19:48:49.200Z,191.80
2023-04-18T19:53:49.421Z,153.80
2023-04-18T19:58:47.723Z,140.50
2023-04-18T20:03:47.307Z,128.30
2023-04-18T20:08:46.281Z,331.70
2023-04-18T20:13:45.469Z,422.40
2023-04-18T20:18:45.677Z,462.10
2023-04-18T20:23:43.632Z,370.40
2023-04-18T20:28:42.934Z,329.20
2023-04-18T20:33:42.545Z,293.80
2023-04-18T20:38:43.857Z,462.60
2023-04-18T20:43:41.910Z,430.40
2023-04-18T20:48:40.165Z,377.90
2023-04-18T20:53:39.314Z,354.30
2023-04-18T20:58:38.884Z,323.80
2023-04-18T21:03:38.866Z,295.40
2023-04-18T21:08:37.996Z,279.30
2023-04-18T21:13:37.220Z,402.50
2023-04-18T21:18:35.481Z,448.10
2023-04-18T21:23:38.800Z,389.80
2023-04-18T21:28:34.075Z,346.10
2023-04-18T21:33:33.336Z,328.60
2023-04-18T21:38:32.746Z,467.80
2023-04-18T21:43:31.803Z,419.40
2023-04-18T21:48:31.106Z,393.90
2023-04-18T21:53:31.341Z,469.90
2023-04-18T21:58:28.824Z,474.20
2023-04-18T22:03:29.159Z,422.40
2023-04-18T22:08:28.204Z,371.40
2023-04-18T22:13:28.460Z,373.90
2023-04-18T22:18:28.719Z,359.40
2023-04-18T22:23:26.018Z,337.10
2023-04-18T22:28:26.282Z,329.70
2023-04-18T22:33:24.591Z,309.90
2023-04-18T22:38:23.846Z,294.80
2023-04-18T22:43:23.122Z,282.70
2023-04-18T22:48:23.404Z,266.10
2023-04-18T22:53:21.694Z,259.90
2023-04-18T22:58:21.002Z,249.50
2023-04-18T23:03:20.396Z,233.30
2023-04-18T23:08:18.582Z,224.30
2023-04-18T23:13:19.882Z,210.20
2023-04-18T23:18:20.171Z,205.40
2023-04-18T23:23:20.547Z,188.30
2023-04-18T23:28:16.650Z,182.10
2023-04-18T23:33:17.953Z,170.60
2023-04-18T23:38:15.226Z,160.50
2023-04-18T23:43:14.486Z,156.00
2023-04-18T23:48:14.791Z,147.10
2023-04-18T23:53:14.064Z,142.40
2023-04-18T23:58:14.346Z,135.60
